createdAt,value
2023-01-06T00:06:15.416Z,23.59619140625
2023-01-06T00:16:15.401Z,24.30419921875
2023-01-06T00:26:15.396Z,23.9013671875
2023-01-06T00:36:15.184Z,22.59521484375
2023-01-06T00:46:15.217Z,22.20458984375
2023-01-06T00:56:15.104Z,21.8994140625
2023-01-06T01:06:15.001Z,21.8994140625
2023-01-06T01:16:15.001Z,21.8994140625
2023-01-06T01:26:14.834Z,21.20361328125
2023-01-06T01:36:14.779Z,20.49560546875
2023-01-06T01:46:14.681Z,20.703125
2023-01-06T01:56:14.596Z,21.30126953125
2023-01-06T02:06:14.542Z,21.10595703125
2023-01-06T02:16:14.610Z,21.30126953125
2023-01-06T02:26:14.372Z,22.20458984375
2023-01-06T02:36:14.339Z,21.49658203125
2023-01-06T02:46:14.270Z,21.8017578125
2023-01-06T02:56:14.188Z,21.9970703125
2023-01-06T03:06:14.179Z,22.30224609375
2023-01-06T03:16:14.095Z,21.8017578125
2023-01-06T03:26:13.932Z,21.9970703125
2023-01-06T03:36:13.996Z,21.7041015625
2023-01-06T03:46:13.948Z,21.49658203125
2023-01-06T03:56:13.750Z,21.49658203125
2023-01-06T04:06:13.671Z,21.9970703125
2023-01-06T04:16:13.667Z,21.8994140625
2023-01-06T04:26:13.502Z,21.9970703125
2023-01-06T04:36:13.449Z,21.59423828125
2023-01-06T04:46:13.388Z,21.49658203125
2023-01-06T04:56:13.308Z,21.39892578125
2023-01-06T05:06:13.253Z,21.20361328125
2023-01-06T05:16:13.226Z,20.8984375
2023-01-06T05:26:13.043Z,20.60546875
2023-01-06T05:36:13.000Z,20.49560546875
2023-01-06T05:37:13.193Z,20.20263671875
2023-01-06T05:47:12.799Z,20.20263671875
2023-01-06T05:57:12.743Z,20.10498046875
2023-01-06T06:07:12.684Z,19.9951171875
2023-01-06T06:17:12.613Z,19.7021484375
2023-01-06T06:27:12.607Z,19.7021484375
2023-01-06T06:37:12.720Z,19.7021484375
2023-01-06T06:47:12.416Z,19.49462890625
2023-01-06T06:57:12.661Z,19.6044921875
2023-01-06T07:07:12.305Z,19.49462890625
2023-01-06T07:17:12.215Z,19.49462890625
2023-01-06T07:27:12.189Z,19.39697265625
2023-01-06T07:37:12.144Z,19.39697265625
2023-01-06T07:47:11.983Z,19.20166015625
2023-01-06T07:57:11.921Z,19.20166015625
2023-01-06T08:07:11.897Z,19.20166015625
2023-01-06T08:17:11.789Z,19.10400390625
2023-01-06T08:27:11.695Z,19.10400390625
2023-01-06T08:37:11.612Z,19.10400390625
2023-01-06T08:47:11.506Z,19.10400390625
2023-01-06T08:57:11.491Z,19.10400390625
2023-01-06T09:07:11.385Z,19.10400390625
2023-01-06T09:17:11.324Z,19.10400390625
2023-01-06T09:27:11.223Z,19.10400390625
2023-01-06T09:37:11.147Z,18.994140625
2023-01-06T09:47:11.092Z,18.994140625
2023-01-06T09:57:10.990Z,18.994140625
2023-01-06T10:07:11.065Z,18.896484375
2023-01-06T10:17:10.870Z,18.896484375
2023-01-06T10:27:10.794Z,18.896484375
2023-01-06T10:37:10.705Z,18.798828125
2023-01-06T10:47:10.617Z,18.896484375
2023-01-06T10:57:10.543Z,18.798828125
2023-01-06T11:07:10.456Z,18.798828125
2023-01-06T11:17:10.428Z,18.798828125
2023-01-06T11:27:10.358Z,18.701171875
2023-01-06T11:37:10.250Z,18.701171875
2023-01-06T11:47:10.165Z,18.701171875
2023-01-06T11:57:10.104Z,18.701171875
2023-01-06T12:07:10.368Z,18.701171875
2023-01-06T12:17:10.092Z,18.603515625
2023-01-06T12:27:09.905Z,18.603515625
2023-01-06T12:37:09.895Z,18.505859375
2023-01-06T12:47:09.725Z,18.505859375
2023-01-06T12:57:09.656Z,18.505859375
2023-01-06T13:07:09.621Z,18.505859375
2023-01-06T13:17:09.507Z,18.39599609375
2023-01-06T13:27:09.471Z,18.39599609375
2023-01-06T13:37:09.397Z,18.39599609375
2023-01-06T13:47:09.269Z,18.39599609375
2023-01-06T13:57:09.255Z,18.39599609375
2023-01-06T14:07:09.136Z,18.29833984375
2023-01-06T14:17:09.090Z,18.29833984375
2023-01-06T14:27:09.000Z,18.29833984375
2023-01-06T14:37:08.942Z,18.20068359375
2023-01-06T14:47:08.842Z,18.20068359375
2023-01-06T14:57:08.802Z,18.29833984375
2023-01-06T15:07:08.696Z,18.29833984375
2023-01-06T15:17:08.629Z,18.29833984375
2023-01-06T15:27:08.602Z,18.29833984375
2023-01-06T15:37:08.585Z,18.20068359375
2023-01-06T15:47:08.421Z,18.20068359375
2023-01-06T15:57:16.185Z,18.29833984375
2023-01-06T16:07:08.278Z,18.29833984375
2023-01-06T16:17:08.318Z,18.20068359375
2023-01-06T16:27:08.144Z,18.10302734375
2023-01-06T16:37:08.083Z,18.00537109375
2023-01-06T16:47:07.984Z,17.5048828125
2023-01-06T16:57:07.891Z,17.29736328125
2023-01-06T17:07:07.817Z,17.29736328125
2023-01-06T17:17:07.747Z,17.39501953125
2023-01-06T17:27:07.700Z,17.19970703125
2023-01-06T17:37:07.590Z,17.29736328125
2023-01-06T17:47:07.552Z,17.29736328125
2023-01-06T17:57:07.489Z,17.10205078125
2023-01-06T18:07:07.402Z,17.10205078125
2023-01-06T18:17:07.290Z,17.29736328125
2023-01-06T18:27:07.259Z,17.29736328125
2023-01-06T18:37:07.186Z,17.19970703125
2023-01-06T18:47:07.079Z,17.00439453125
2023-01-06T19:07:07.063Z,17.00439453125
2023-01-06T19:17:06.854Z,17.00439453125
2023-01-06T19:27:06.791Z,17.00439453125
2023-01-06T19:37:06.699Z,17.00439453125
2023-01-06T19:47:06.630Z,17.00439453125
2023-01-06T19:57:06.559Z,17.00439453125
2023-01-06T20:07:06.528Z,16.89453125
2023-01-06T20:17:06.414Z,17.00439453125
2023-01-06T20:27:06.341Z,17.19970703125
2023-01-06T20:37:06.289Z,17.5048828125
2023-01-06T20:47:06.189Z,17.5048828125
2023-01-06T20:57:06.123Z,17.29736328125
2023-01-06T21:07:06.071Z,17.39501953125
2023-01-06T21:17:05.974Z,17.10205078125
2023-01-06T21:27:05.903Z,17.00439453125
2023-01-06T21:37:05.849Z,17.19970703125
2023-01-06T21:47:05.885Z,17.10205078125
2023-01-06T21:57:05.676Z,17.10205078125
2023-01-06T22:07:05.707Z,16.89453125
2023-01-06T22:17:05.603Z,16.89453125
2023-01-06T22:27:05.473Z,16.796875
2023-01-06T22:37:05.411Z,16.796875
2023-01-06T22:47:05.333Z,16.6015625
2023-01-06T22:57:05.313Z,16.6015625
2023-01-06T23:07:05.185Z,16.50390625
2023-01-06T23:17:05.077Z,16.39404296875
2023-01-06T23:27:05.041Z,16.50390625
2023-01-06T23:37:04.954Z,16.50390625
2023-01-06T23:47:06.957Z,16.50390625
2023-01-06T23:57:04.928Z,16.50390625
